LEGM
43.26.15N 005.49.84W
IN73CK aprs.fi
zuletzt gehoert:
2023-02-05T21:00:04Z
zuerst gehoert:
2020-05-10T22:15:22Z

APRS Llanera [IN73CK], 2 Stunde(n), LEGM [22:07:11, 0s].
LEGM 43.26.15N 005.49.84WIN73CK 0.470km 286°WNW21:00:04ZHelipuerto de La Morgal (123.500MHz): LEAS 052000Z 10010KT 070V140 CAVOK 09/06 Q1035 NOSIG=
LEMR 43.25.83N 005.49.60WIN73CK 0.502km 196°SSW21:00:19ZAerodromo de la Morgal (123.500MHz): LEAS 052000Z 10010KT 070V140 CAVOK 09/06 Q1035 NOSIG=
EA1ABW 43.24.77N 005.47.77WIN73CJ 3.358km 136°SE20:59:48ZMMDVM MMDVM HS Hat 439.8250/439.8250 CC1(3EA1ABW-2)
EA1IPU 43.26.21N 005.46.62WIN73CK 3.888km 86°E21:00:24ZMMDVM MMDVM HS Hat 439.8000/439.8000 CC1(3EA1IPU-1)
LEHU 43.22.63N 005.49.57WIN73CJ 6.412km 181°S21:00:04ZHelipuerto del HUCA: LEAS 052000Z 10010KT 070V140 CAVOK 09/06 Q1035 NOSIG=
ED1ZAU 43.23.04N 005.52.75WIN73BJ 7.152km 218°SW20:58:07ZRD625 438.5000/430.9000 CC1
EA1JBU 43.21.85N 005.51.13WIN73BI 8.159km 196°SSW21:00:20ZEA1JBU(3EA1JBU-1)
33D00 43.21.63N 005.51.13WIN73BI 8.549km 195°SSW21:01:42Z33-D-00 Protección Civil REMER / Delegación del Gobierno en Asturias
EA1L 43.20.37N 005.51.13WIN73BI 10.805km 192°SSW21:05:05ZWind 067°/001kn, Böen bis 003kn, Temp 6.67c, Regen 0.0mm, letzte 24h 0.0mm, seit 0h 0.0mm, Baro 1033.5h, Hum: 87%(3EA1L-13)
ED1ZAY 43.29.47N 005.56.54WIN73AL 11.369km 304°NW20:58:12ZRD625 438.3000/430.7000 CC1
ED1ZAE 43.27.99N 005.40.54WIN73DL 12.549km 74°ENE20:59:30Z400 M. PICO SAN MARTIN (GIJON) 13.2V,7.8C(3ED1ZAE-3)
EA1HWX 43.19.29N 005.50.96WIN73BH 12.754km 189°S21:00:43ZDMO - UHF 439.7250/431.0000 CC11(3EA1HWX-2)
ED1ZAS 43.27.52N 005.40.17WIN73DL 12.824km 78°ENE20:58:06ZRD985 438.2250/430.6250 CC1
EA1AHA 43.32.74N 005.54.35WIN73BN 13.945km 332°NNW20:58:44ZMMDVM MMDVM HS 433.5000/433.5000 CC1
EA1AUM 43.32.75N 005.54.47WIN73BN 14.037km 332°NNW21:00:21ZMMDVM MMDVM HS Hat 432.1000/432.1000 CC1(3EA1AUM-1)
EB1TK 43.32.22N 005.42.32WIN73DM 14.924km 40°NE21:05:17ZWind 076°/018kn, Böen bis 029kn, Temp 11.67c, Regen 0.0mm, letzte 24h 0.0mm, seit 0h 0.0mm, Baro 1038.6h, Hum: 77%(3EB1TK-13)
EA1FPN 43.32.38N 005.42.17WIN73DM 15.266km 40°NE20:59:28ZMMDVM MMDVM HS Hat 439.8750/439.8750 CC1
EA1FFA 43.31.53N 005.40.64WIN73DM 15.621km 50°NE21:00:40ZMMDVM MMDVM HS Hat 438.8000/438.8000 CC1(3EA1FFA-1)
EA4ACU 43.29.56N 005.38.92WIN73EL 15.615km 66°ENE21:00:59ZMMDVM MMDVM HS Hat 432.7000/432.7000 CC1(3EA4ACU-1)
EA1DZL 43.33.56N 005.55.78WIN73AN 16.210km 329°NNW21:01:33ZMMDVM MMDVM HS Hat 438.8000/438.8000 CC1(3EA1DZL-1)
EA1DZR 43.31.49N 005.40.00WIN73DM 16.231km 52°NE21:00:22ZMMDVM MMDVM HS Hat 432.2000/432.2000 CC2(3EA1DZR-2)
MMDVM DMO 434.3500/434.3500 CC1(2EA1DZR-4)
MMDVM DVMega 431.1000/431.1000 CC1(2EA1DZR-1)
LEEL 43.32.98N 005.41.71WIN73DN 16.507km 39°NE21:00:18ZHelipuerto de El Musel: LEAS 052000Z 10010KT 070V140 CAVOK 09/06 Q1035 NOSIG=
EA1IEJ 43.32.33N 005.38.92WIN73EM 18.334km 51°NE21:00:33ZMMDVM DMO 222.3400/222.3400 CC1(3EA1IEJ-11)
MMDVM MMDVM HS Hat 438.8500/438.8500 CC6(2EA1IEJ-1)
EA1FLQ 43.22.00N 005.36.35WIN73EI 19.250km 113°ESE20:58:46ZMMDVM DVMega 430.9750/430.9750 CC1
EB1GEM 43.30.00N 005.36.07WIN73EM 19.472km 68°ENE21:00:19ZWX3in1Plus2.0 U=13.3V,T=??.?C/??.?F(3EB1GEM-3)
EA1IMW 43.14.36N 005.46.93WIN73CF 22.010km 171°S21:00:24ZGRUPO RADIO GALENA (GRG) 430.4500/430.4500 CC1(3EA1IMW-1)
EA1AQK 43.16.49N 005.35.99WIN73EG 25.432km 134°SE20:22:07ZMMDVM MMDVM HS Hat 439.8500/439.8500 CC1(3EA1AQK-1)
EB1DGC 43.12.60N 005.45.59WIN73CF 25.544km 168°SSE20:58:35ZMMDVM MMDVM HS Hat 433.4500/433.4500 CC1
EA1HJA 43.28.10N 005.30.45WIN73FL 25.900km 82°E21:03:13Z IN73FL WX3IN1+ 2.0 - V=14.0V,TX TEMP=43.5C
IN73FL WX3IN1+ 2.0 - V=13.3V,TX TEMP=19.8C(2EA1HJA-2)
EA1HWA 43.12.00N 005.47.40WIN73CE 26.262km 174°S20:59:01ZMMDVM MMDVM HS Hat 433.4500/433.4500 CC1
EA1AYL 43.29.44N 006.09.04WIN63WL 27.011km 283°WNW20:58:42ZMMDVM MMDVM HS Hat 433.0750/433.0750 CC1
EA1JW 43.31.35N 005.28.83WIN73GM 29.457km 71°ENE21:00:01ZMMDVM MMDVM HS Hat 436.5000/436.5000 CC1(3EA1JW-3)
EA1RCG 43.09.45N 005.49.78WIN73CD 30.817km 181°S21:00:03ZGRUPO RADIO GALENA (GRG) 430.4500/430.4500 CC1(3EA1RCG-3)
EA1JAY 43.29.33N 005.26.78WIN73GL 31.150km 79°E21:00:20ZTransmission ended(3EA1JAY-7)
434.525MHz Nodo TETRA DMO(2EA1JAY-4)
EA1JAY(2EA1JAY-2)
EA1FHR 43.28.72N 005.26.41WIN73GL 31.429km 81°E20:58:30ZMMDVM MMDVM HS Hat 439.1500/439.1500 CC1
ED1ZAD 43.07.90N 005.38.52WIN73ED 36.796km 156°SSE20:57:04ZED1ZAD-3 APRS Digi/Igate(3ED1ZAD-3)
EC1KV 43.34.01N 006.16.01WIN63UN 38.530km 293°WNW20:55:41ZALBUERNE(3EC1KV-1)
EA1JBE 43.30.90N 005.16.15WIN73IM 45.726km 79°E21:05:36ZMAIN QTH http://qrz.com/db/ea1jbe(3EA1JBE-1)
MAIN QTH http://qrz.com/db/ea1jbe(2EA1JBE-13)
LETN 43.20.05N 006.22.69WIN63TI 46.083km 256°WSW21:00:04ZAerodromo de La Curiscada (Tineo): LEAS 052000Z 10010KT 070V140 CAVOK 09/06 Q1035 NOSIG=

aprs.pl 5.0.011w DL3EL © 2006-2021 [10411716]